Terminal Aerodrome Forecast
Issued by NWS

Home | Current Version | Previous Version | Text Only | Print | Product List | Glossary On
Versions: 1 2 3 4 5 6 7 8 9 10 11 12 13 14 15 16 17 18 19 20 21
149
FTUS41 KPBZ 291017 AAA
TAFFKL
TAF AMD
KFKL 291017Z 2910/3006 06005KT 1 1/2SM -DZ BR OVC002
     FM291300 34005KT 3SM BR OVC006
     FM291400 03003KT P6SM OVC008
     FM291900 32005KT P6SM BKN015
     FM300400 34004KT 1 1/2SM BR OVC003
      AMD LTD TO CLD VIS AND WIND=

USA.gov is the U.S. government's official web portal to all federal, state and local government web resources and services.